Time,TemperatureF,DewpointF,PressureIn,WindDirection,WindDirectionDegrees,WindSpeedMPH,WindSpeedGustMPH,Humidity,HourlyPrecipIn,Conditions,Clouds,dailyrainin,SoftwareType,DateUTC
2013-07-03 00:04:00,62.0,56.0,30.07,NE,37,5.0,9.0,80,0.00,,,0.00,weatherlink.com 1.10,2013-07-03 07:04:00,
2013-07-03 00:19:00,61.6,56.0,30.07,North,9,4.0,8.0,81,0.00,,,0.00,weatherlink.com 1.10,2013-07-03 07:19:00,
2013-07-03 00:34:00,61.2,55.0,30.07,NW,323,6.0,10.0,81,0.00,,,0.00,weatherlink.com 1.10,2013-07-03 07:34:00,
2013-07-03 00:49:00,60.8,55.0,30.07,NNW,342,7.0,11.0,81,0.00,,,0.00,weatherlink.com 1.10,2013-07-03 07:49:00,
2013-07-03 01:04:00,60.5,55.0,30.07,WNW,290,6.0,10.0,82,0.00,,,0.00,weatherlink.com 1.10,2013-07-03 08:04:00,
2013-07-03 01:34:00,60.0,55.0,30.08,NW,319,10.0,11.0,82,0.00,,,0.00,weatherlink.com 1.10,2013-07-03 08:34:00,
2013-07-03 01:49:00,59.8,54.0,30.08,NW,315,6.0,13.0,82,0.00,,,0.00,weatherlink.com 1.10,2013-07-03 08:49:00,
2013-07-03 02:04:00,59.3,54.0,30.07,WNW,295,4.0,11.0,82,0.00,,,0.00,weatherlink.com 1.10,2013-07-03 09:04:00,
2013-07-03 02:19:00,59.0,54.0,30.08,WNW,283,8.0,17.0,83,0.00,,,0.00,weatherlink.com 1.10,2013-07-03 09:19:00,
2013-07-03 02:49:00,58.3,53.0,30.08,NW,309,5.0,13.0,83,0.00,,,0.00,weatherlink.com 1.10,2013-07-03 09:49:00,
2013-07-03 03:04:00,58.0,53.0,30.09,North,350,2.0,10.0,84,0.00,,,0.00,weatherlink.com 1.10,2013-07-03 10:04:00,
2013-07-03 03:19:00,57.7,53.0,30.09,NNW,330,3.0,7.0,85,0.00,,,0.00,weatherlink.com 1.10,2013-07-03 10:19:00,
2013-07-03 03:34:00,57.4,53.0,30.09,NE,37,2.0,7.0,86,0.00,,,0.00,weatherlink.com 1.10,2013-07-03 10:34:00,
2013-07-03 03:49:00,57.1,53.0,30.09,NW,322,3.0,7.0,86,0.00,,,0.00,weatherlink.com 1.10,2013-07-03 10:49:00,
2013-07-03 04:04:00,56.9,53.0,30.10,NNE,20,0.0,5.0,87,0.00,,,0.00,weatherlink.com 1.10,2013-07-03 11:04:00,
2013-07-03 04:19:00,56.6,53.0,30.10,NNW,342,1.0,7.0,87,0.00,,,0.00,weatherlink.com 1.10,2013-07-03 11:19:00,
2013-07-03 04:35:00,56.4,53.0,30.10,NNW,328,5.0,10.0,88,0.00,,,0.00,weatherlink.com 1.10,2013-07-03 11:35:00,
2013-07-03 05:20:00,55.7,53.0,30.11,West,281,2.0,7.0,89,0.00,,,0.00,weatherlink.com 1.10,2013-07-03 12:20:00,
2013-07-03 05:35:00,55.7,53.0,30.12,NE,47,3.0,7.0,89,0.00,,,0.00,weatherlink.com 1.10,2013-07-03 12:35:00,
2013-07-03 05:50:00,55.6,53.0,30.12,NNE,20,6.0,7.0,89,0.00,,,0.00,weatherlink.com 1.10,2013-07-03 12:50:00,
2013-07-03 06:05:00,55.5,52.0,30.12,NNE,13,1.0,5.0,89,0.00,,,0.00,weatherlink.com 1.10,2013-07-03 13:05:00,
2013-07-03 06:20:00,55.5,53.0,30.12,NNE,25,5.0,6.0,90,0.00,,,0.00,weatherlink.com 1.10,2013-07-03 13:20:00,
2013-07-03 07:05:00,55.9,53.0,30.12,NW,322,4.0,11.0,89,0.00,,,0.00,weatherlink.com 1.10,2013-07-03 14:05:00,
2013-07-03 07:20:00,56.2,53.0,30.12,North,356,6.0,9.0,88,0.00,,,0.00,weatherlink.com 1.10,2013-07-03 14:20:00,
2013-07-03 07:35:00,56.6,53.0,30.13,NW,312,1.0,10.0,87,0.00,,,0.00,weatherlink.com 1.10,2013-07-03 14:35:00,
2013-07-03 07:50:00,57.2,53.0,30.12,West,267,2.0,10.0,86,0.00,,,0.00,weatherlink.com 1.10,2013-07-03 14:50:00,
2013-07-03 08:05:00,58.4,54.0,30.13,West,262,2.0,7.0,84,0.00,,,0.00,weatherlink.com 1.10,2013-07-03 15:05:00,
2013-07-03 09:05:00,61.2,54.0,30.12,North,356,1.0,10.0,78,0.00,,,0.00,weatherlink.com 1.10,2013-07-03 16:05:00,
2013-07-03 09:35:00,62.5,55.0,30.12,NNW,338,2.0,10.0,77,0.00,,,0.00,weatherlink.com 1.10,2013-07-03 16:35:00,
2013-07-03 09:50:00,63.2,54.0,30.12,WSW,243,4.0,10.0,73,0.00,,,0.00,weatherlink.com 1.10,2013-07-03 16:50:00,
2013-07-03 10:05:00,64.1,55.0,30.11,WSW,243,11.0,11.0,71,0.00,,,0.00,weatherlink.com 1.10,2013-07-03 17:05:00,
2013-07-03 10:20:00,64.6,55.0,30.11,West,278,8.0,10.0,71,0.00,,,0.00,weatherlink.com 1.10,2013-07-03 17:20:00,
2013-07-03 10:50:00,65.9,55.0,30.11,SW,233,2.0,10.0,69,0.00,,,0.00,weatherlink.com 1.10,2013-07-03 17:50:00,
2013-07-03 11:05:00,67.0,55.0,30.11,West,271,2.0,9.0,66,0.00,,,0.00,weatherlink.com 1.10,2013-07-03 18:05:00,
2013-07-03 11:20:00,67.5,56.0,30.11,NW,308,1.0,10.0,66,0.00,,,0.00,weatherlink.com 1.10,2013-07-03 18:20:00,
2013-07-03 11:35:00,68.1,56.0,30.11,WNW,297,8.0,11.0,65,0.00,,,0.00,weatherlink.com 1.10,2013-07-03 18:35:00,
2013-07-03 11:50:00,68.1,55.0,30.11,West,280,5.0,13.0,64,0.00,,,0.00,weatherlink.com 1.10,2013-07-03 18:50:00,
2013-07-03 12:05:00,69.1,56.0,30.11,NW,319,6.0,12.0,64,0.00,,,0.00,weatherlink.com 1.10,2013-07-03 19:05:00,
2013-07-03 12:21:00,69.7,56.0,30.11,NW,324,5.0,12.0,61,0.00,,,0.00,weatherlink.com 1.10,2013-07-03 19:21:00,
2013-07-03 12:36:00,70.4,57.0,30.11,West,276,7.0,12.0,63,0.00,,,0.00,weatherlink.com 1.10,2013-07-03 19:36:00,
2013-07-03 12:51:00,70.8,56.0,30.10,North,7,3.0,11.0,60,0.00,,,0.00,weatherlink.com 1.10,2013-07-03 19:51:00,
2013-07-03 13:06:00,71.0,56.0,30.10,NNW,342,4.0,14.0,60,0.00,,,0.00,weatherlink.com 1.10,2013-07-03 20:06:00,
2013-07-03 13:21:00,72.1,57.0,30.10,NE,53,5.0,12.0,60,0.00,,,0.00,weatherlink.com 1.10,2013-07-03 20:21:00,
2013-07-03 13:36:00,72.6,58.0,30.09,West,280,5.0,12.0,61,0.00,,,0.00,weatherlink.com 1.10,2013-07-03 20:36:00,
2013-07-03 13:51:00,72.9,58.0,30.09,West,281,3.0,14.0,60,0.00,,,0.00,weatherlink.com 1.10,2013-07-03 20:51:00,
2013-07-03 14:06:00,73.9,58.0,30.09,WNW,294,11.0,13.0,58,0.00,,,0.00,weatherlink.com 1.10,2013-07-03 21:06:00,
2013-07-03 14:21:00,74.7,58.0,30.09,NW,324,6.0,10.0,57,0.00,,,0.00,weatherlink.com 1.10,2013-07-03 21:21:00,
2013-07-03 14:36:00,74.7,58.0,30.08,NW,310,2.0,10.0,56,0.00,,,0.00,weatherlink.com 1.10,2013-07-03 21:36:00,
2013-07-03 15:06:00,76.2,60.0,30.07,NNE,27,3.0,8.0,57,0.00,,,0.00,weatherlink.com 1.10,2013-07-03 22:06:00,
2013-07-03 15:21:00,76.2,59.0,30.07,NE,43,7.0,10.0,55,0.00,,,0.00,weatherlink.com 1.10,2013-07-03 22:21:00,
2013-07-03 15:36:00,76.0,61.0,30.06,NW,320,2.0,12.0,59,0.00,,,0.00,weatherlink.com 1.10,2013-07-03 22:36:00,
2013-07-03 15:51:00,76.6,59.0,30.06,West,281,5.0,12.0,54,0.00,,,0.00,weatherlink.com 1.10,2013-07-03 22:51:00,
2013-07-03 16:06:00,76.8,60.0,30.05,West,266,6.0,9.0,56,0.00,,,0.00,weatherlink.com 1.10,2013-07-03 23:06:00,
2013-07-03 16:21:00,76.6,59.0,30.05,North,359,3.0,13.0,55,0.00,,,0.00,weatherlink.com 1.10,2013-07-03 23:21:00,
2013-07-03 16:36:00,77.0,60.0,30.04,West,260,1.0,12.0,55,0.00,,,0.00,weatherlink.com 1.10,2013-07-03 23:36:00,
2013-07-03 16:51:00,76.8,60.0,30.04,West,273,4.0,12.0,56,0.00,,,0.00,weatherlink.com 1.10,2013-07-03 23:51:00,
2013-07-03 17:06:00,76.8,59.0,30.04,NNW,333,4.0,10.0,54,0.00,,,0.00,weatherlink.com 1.10,2013-07-04 00:06:00,
2013-07-03 17:21:00,76.3,60.0,30.03,West,267,7.0,13.0,57,0.00,,,0.00,weatherlink.com 1.10,2013-07-04 00:21:00,
2013-07-03 17:36:00,76.3,59.0,30.03,WNW,300,3.0,10.0,56,0.00,,,0.00,weatherlink.com 1.10,2013-07-04 00:36:00,
2013-07-03 17:51:00,75.9,59.0,30.03,NNE,33,4.0,13.0,56,0.00,,,0.00,weatherlink.com 1.10,2013-07-04 00:51:00,
2013-07-03 18:21:00,74.4,56.0,30.02,NNE,20,4.0,15.0,52,0.00,,,0.00,weatherlink.com 1.10,2013-07-04 01:21:00,
2013-07-03 19:06:00,71.3,53.0,30.04,WNW,301,4.0,10.0,52,0.00,,,0.00,weatherlink.com 1.10,2013-07-04 02:06:00,
2013-07-03 19:21:00,69.8,52.0,30.04,NNW,348,6.0,15.0,54,0.00,,,0.00,weatherlink.com 1.10,2013-07-04 02:21:00,
2013-07-03 19:36:00,68.7,52.0,30.04,North,360,7.0,16.0,56,0.00,,,0.00,weatherlink.com 1.10,2013-07-04 02:36:00,
2013-07-03 19:51:00,67.6,52.0,30.04,North,350,5.0,17.0,58,0.00,,,0.00,weatherlink.com 1.10,2013-07-04 02:51:00,
2013-07-03 20:06:00,66.5,52.0,30.05,NE,49,3.0,15.0,61,0.00,,,0.00,weatherlink.com 1.10,2013-07-04 03:06:00,
2013-07-03 20:21:00,65.4,52.0,30.05,NNE,32,2.0,16.0,63,0.00,,,0.00,weatherlink.com 1.10,2013-07-04 03:21:00,
2013-07-03 20:36:00,64.3,52.0,30.05,NNE,16,8.0,11.0,65,0.00,,,0.00,weatherlink.com 1.10,2013-07-04 03:36:00,
2013-07-03 20:51:00,63.2,52.0,30.06,NW,316,3.0,12.0,67,0.00,,,0.00,weatherlink.com 1.10,2013-07-04 03:51:00,
2013-07-03 21:06:00,62.0,52.0,30.06,NE,46,9.0,11.0,70,0.00,,,0.00,weatherlink.com 1.10,2013-07-04 04:06:00,
2013-07-03 21:21:00,60.9,52.0,30.07,NNW,339,3.0,13.0,73,0.00,,,0.00,weatherlink.com 1.10,2013-07-04 04:21:00,
2013-07-03 21:36:00,60.1,52.0,30.07,NE,34,9.0,12.0,75,0.00,,,0.00,weatherlink.com 1.10,2013-07-04 04:36:00,
2013-07-03 21:51:00,59.2,52.0,30.07,NW,321,3.0,10.0,78,0.00,,,0.00,weatherlink.com 1.10,2013-07-04 04:51:00,
2013-07-03 22:06:00,58.6,52.0,30.08,NNW,329,10.0,16.0,79,0.00,,,0.00,weatherlink.com 1.10,2013-07-04 05:06:00,
2013-07-03 22:21:00,58.0,52.0,30.09,NNW,340,4.0,11.0,80,0.00,,,0.00,weatherlink.com 1.10,2013-07-04 05:21:00,
2013-07-03 22:36:00,57.5,52.0,30.10,NW,323,2.0,10.0,81,0.00,,,0.00,weatherlink.com 1.10,2013-07-04 05:36:00,
2013-07-03 22:51:00,57.2,52.0,30.10,NNE,23,3.0,11.0,82,0.00,,,0.00,weatherlink.com 1.10,2013-07-04 05:51:00,
2013-07-03 23:07:00,56.8,52.0,30.09,NNW,336,4.0,12.0,83,0.00,,,0.00,weatherlink.com 1.10,2013-07-04 06:07:00,
2013-07-03 23:21:00,56.5,52.0,30.09,NE,36,1.0,11.0,84,0.00,,,0.00,weatherlink.com 1.10,2013-07-04 06:21:00,
2013-07-03 23:36:00,56.3,52.0,30.09,North,4,4.0,13.0,84,0.00,,,0.00,weatherlink.com 1.10,2013-07-04 06:36:00,
2013-07-03 23:51:00,56.1,52.0,30.09,NE,53,4.0,12.0,85,0.00,,,0.00,weatherlink.com 1.10,2013-07-04 06:51:00,